sensor_id;sensor_type;location;lat;lon;timestamp;temperature;humidity
9446;DHT22;4761;49.490;10.908;2023-11-21T00:00:15;18.80;53.00
9446;DHT22;4761;49.490;10.908;2023-11-21T00:02:42;18.70;52.90
9446;DHT22;4761;49.490;10.908;2023-11-21T00:05:09;18.70;52.90
9446;DHT22;4761;49.490;10.908;2023-11-21T00:07:36;18.80;53.00
9446;DHT22;4761;49.490;10.908;2023-11-21T00:10:01;18.70;52.90
9446;DHT22;4761;49.490;10.908;2023-11-21T00:12:28;18.80;52.90
9446;DHT22;4761;49.490;10.908;2023-11-21T00:14:54;18.70;52.80
9446;DHT22;4761;49.490;10.908;2023-11-21T00:17:20;18.80;52.90
9446;DHT22;4761;49.490;10.908;2023-11-21T00:19:45;18.70;52.80
9446;DHT22;4761;49.490;10.908;2023-11-21T00:22:11;18.80;52.90
9446;DHT22;4761;49.490;10.908;2023-11-21T00:24:36;18.80;52.90
9446;DHT22;4761;49.490;10.908;2023-11-21T00:27:02;18.80;52.80
9446;DHT22;4761;49.490;10.908;2023-11-21T00:29:28;18.80;52.80
9446;DHT22;4761;49.490;10.908;2023-11-21T00:31:54;18.80;52.80
9446;DHT22;4761;49.490;10.908;2023-11-21T00:34:19;18.80;52.80
9446;DHT22;4761;49.490;10.908;2023-11-21T00:36:45;18.80;52.80
9446;DHT22;4761;49.490;10.908;2023-11-21T00:39:10;18.70;52.70
9446;DHT22;4761;49.490;10.908;2023-11-21T00:41:37;18.80;52.80
9446;DHT22;4761;49.490;10.908;2023-11-21T00:44:03;18.70;52.70
9446;DHT22;4761;49.490;10.908;2023-11-21T00:46:28;18.70;52.80
9446;DHT22;4761;49.490;10.908;2023-11-21T00:48:55;18.70;52.80
9446;DHT22;4761;49.490;10.908;2023-11-21T00:51:21;18.70;52.70
9446;DHT22;4761;49.490;10.908;2023-11-21T00:53:47;18.70;52.70
9446;DHT22;4761;49.490;10.908;2023-11-21T00:56:13;18.70;52.60
9446;DHT22;4761;49.490;10.908;2023-11-21T00:58:39;18.80;52.70
9446;DHT22;4761;49.490;10.908;2023-11-21T01:01:09;18.80;52.70
9446;DHT22;4761;49.490;10.908;2023-11-21T01:03:34;18.70;52.70
9446;DHT22;4761;49.490;10.908;2023-11-21T01:06:00;18.80;52.80
9446;DHT22;4761;49.490;10.908;2023-11-21T01:08:25;18.70;52.70
9446;DHT22;4761;49.490;10.908;2023-11-21T01:10:51;18.70;52.70
9446;DHT22;4761;49.490;10.908;2023-11-21T01:13:17;18.80;52.70
9446;DHT22;4761;49.490;10.908;2023-11-21T01:15:42;18.70;52.60
9446;DHT22;4761;49.490;10.908;2023-11-21T01:18:08;18.80;53.30
9446;DHT22;4761;49.490;10.908;2023-11-21T01:20:36;18.70;52.70
9446;DHT22;4761;49.490;10.908;2023-11-21T01:23:01;18.70;52.70
9446;DHT22;4761;49.490;10.908;2023-11-21T01:25:27;18.70;52.70
9446;DHT22;4761;49.490;10.908;2023-11-21T01:27:53;18.70;52.80
9446;DHT22;4761;49.490;10.908;2023-11-21T01:30:18;18.70;52.70
9446;DHT22;4761;49.490;10.908;2023-11-21T01:32:44;18.70;52.70
9446;DHT22;4761;49.490;10.908;2023-11-21T01:35:10;18.70;52.70
9446;DHT22;4761;49.490;10.908;2023-11-21T01:37:38;18.70;52.70
9446;DHT22;4761;49.490;10.908;2023-11-21T01:40:04;18.70;52.70
9446;DHT22;4761;49.490;10.908;2023-11-21T01:42:34;18.70;52.70
9446;DHT22;4761;49.490;10.908;2023-11-21T01:45:00;18.70;52.70
9446;DHT22;4761;49.490;10.908;2023-11-21T01:47:32;18.70;52.70
9446;DHT22;4761;49.490;10.908;2023-11-21T01:49:58;18.70;52.70
9446;DHT22;4761;49.490;10.908;2023-11-21T01:52:24;18.70;52.70
9446;DHT22;4761;49.490;10.908;2023-11-21T01:54:50;18.70;52.70
9446;DHT22;4761;49.490;10.908;2023-11-21T01:57:15;18.70;52.70
9446;DHT22;4761;49.490;10.908;2023-11-21T01:59:41;18.80;52.70
9446;DHT22;4761;49.490;10.908;2023-11-21T02:02:07;18.70;52.60
9446;DHT22;4761;49.490;10.908;2023-11-21T02:04:35;18.70;52.60
9446;DHT22;4761;49.490;10.908;2023-11-21T02:07:02;18.70;52.60
9446;DHT22;4761;49.490;10.908;2023-11-21T02:09:31;18.70;52.70
9446;DHT22;4761;49.490;10.908;2023-11-21T02:11:58;18.80;52.80
9446;DHT22;4761;49.490;10.908;2023-11-21T02:14:25;18.70;52.70
9446;DHT22;4761;49.490;10.908;2023-11-21T02:16:52;18.70;52.60
9446;DHT22;4761;49.490;10.908;2023-11-21T02:19:18;18.70;52.60
9446;DHT22;4761;49.490;10.908;2023-11-21T02:21:45;18.70;52.60
9446;DHT22;4761;49.490;10.908;2023-11-21T02:24:13;18.70;52.60
9446;DHT22;4761;49.490;10.908;2023-11-21T02:26:38;18.70;52.70
9446;DHT22;4761;49.490;10.908;2023-11-21T02:29:04;18.70;52.70
9446;DHT22;4761;49.490;10.908;2023-11-21T02:31:30;18.70;52.70
9446;DHT22;4761;49.490;10.908;2023-11-21T02:33:58;18.70;52.60
9446;DHT22;4761;49.490;10.908;2023-11-21T02:36:23;18.80;52.70
9446;DHT22;4761;49.490;10.908;2023-11-21T02:38:49;18.80;52.70
9446;DHT22;4761;49.490;10.908;2023-11-21T02:41:14;18.80;53.20
9446;DHT22;4761;49.490;10.908;2023-11-21T02:43:40;18.80;52.50
9446;DHT22;4761;49.490;10.908;2023-11-21T02:46:05;18.80;53.10
9446;DHT22;4761;49.490;10.908;2023-11-21T02:48:31;18.80;53.20
9446;DHT22;4761;49.490;10.908;2023-11-21T02:50:56;18.80;52.60
9446;DHT22;4761;49.490;10.908;2023-11-21T02:53:22;18.80;52.60
9446;DHT22;4761;49.490;10.908;2023-11-21T02:55:49;18.70;52.50
9446;DHT22;4761;49.490;10.908;2023-11-21T02:58:15;18.80;52.70
9446;DHT22;4761;49.490;10.908;2023-11-21T03:00:40;18.70;52.60
9446;DHT22;4761;49.490;10.908;2023-11-21T03:03:07;18.70;52.60
9446;DHT22;4761;49.490;10.908;2023-11-21T03:05:33;18.70;52.50
9446;DHT22;4761;49.490;10.908;2023-11-21T03:08:00;18.80;52.60
9446;DHT22;4761;49.490;10.908;2023-11-21T03:10:26;18.80;52.60
9446;DHT22;4761;49.490;10.908;2023-11-21T03:12:52;18.80;52.60
9446;DHT22;4761;49.490;10.908;2023-11-21T03:15:18;18.70;52.50
9446;DHT22;4761;49.490;10.908;2023-11-21T03:17:43;18.70;52.60
9446;DHT22;4761;49.490;10.908;2023-11-21T03:20:09;18.70;52.60
9446;DHT22;4761;49.490;10.908;2023-11-21T03:22:36;18.70;52.50
9446;DHT22;4761;49.490;10.908;2023-11-21T03:25:03;18.70;52.50
9446;DHT22;4761;49.490;10.908;2023-11-21T03:27:28;18.70;52.50
9446;DHT22;4761;49.490;10.908;2023-11-21T03:29:54;18.70;52.60
9446;DHT22;4761;49.490;10.908;2023-11-21T03:32:20;18.70;52.50
9446;DHT22;4761;49.490;10.908;2023-11-21T03:34:58;18.70;52.50
9446;DHT22;4761;49.490;10.908;2023-11-21T03:37:24;18.70;52.50
9446;DHT22;4761;49.490;10.908;2023-11-21T03:39:50;18.70;52.60
9446;DHT22;4761;49.490;10.908;2023-11-21T03:42:16;18.70;52.50
9446;DHT22;4761;49.490;10.908;2023-11-21T03:44:41;18.70;52.50
9446;DHT22;4761;49.490;10.908;2023-11-21T03:47:07;18.70;52.50
9446;DHT22;4761;49.490;10.908;2023-11-21T03:49:32;18.70;52.40
9446;DHT22;4761;49.490;10.908;2023-11-21T03:51:58;18.70;52.40
9446;DHT22;4761;49.490;10.908;2023-11-21T03:54:24;18.70;52.40
9446;DHT22;4761;49.490;10.908;2023-11-21T03:56:49;18.70;52.40
9446;DHT22;4761;49.490;10.908;2023-11-21T03:59:15;18.70;52.40
9446;DHT22;4761;49.490;10.908;2023-11-21T04:01:41;18.70;52.40
9446;DHT22;4761;49.490;10.908;2023-11-21T04:04:06;18.70;52.50
9446;DHT22;4761;49.490;10.908;2023-11-21T04:06:31;18.70;52.40
9446;DHT22;4761;49.490;10.908;2023-11-21T04:08:58;18.70;52.40
9446;DHT22;4761;49.490;10.908;2023-11-21T04:11:24;18.70;52.40
9446;DHT22;4761;49.490;10.908;2023-11-21T04:13:49;18.70;52.40
9446;DHT22;4761;49.490;10.908;2023-11-21T04:16:15;18.70;52.40
9446;DHT22;4761;49.490;10.908;2023-11-21T04:18:40;18.70;52.40
9446;DHT22;4761;49.490;10.908;2023-11-21T04:21:06;18.70;52.40
9446;DHT22;4761;49.490;10.908;2023-11-21T04:23:33;18.70;52.40
9446;DHT22;4761;49.490;10.908;2023-11-21T04:25:58;18.70;52.40
9446;DHT22;4761;49.490;10.908;2023-11-21T04:28:24;18.70;52.40
9446;DHT22;4761;49.490;10.908;2023-11-21T04:30:50;18.70;52.40
9446;DHT22;4761;49.490;10.908;2023-11-21T04:33:15;18.70;52.30
9446;DHT22;4761;49.490;10.908;2023-11-21T04:35:41;18.70;52.90
9446;DHT22;4761;49.490;10.908;2023-11-21T04:38:07;18.70;52.30
9446;DHT22;4761;49.490;10.908;2023-11-21T04:40:32;18.70;52.40
9446;DHT22;4761;49.490;10.908;2023-11-21T04:42:58;18.70;52.40
9446;DHT22;4761;49.490;10.908;2023-11-21T04:45:23;18.70;52.40
9446;DHT22;4761;49.490;10.908;2023-11-21T04:47:49;18.70;52.40
9446;DHT22;4761;49.490;10.908;2023-11-21T04:50:15;18.70;52.40
9446;DHT22;4761;49.490;10.908;2023-11-21T04:52:40;18.70;52.30
9446;DHT22;4761;49.490;10.908;2023-11-21T04:55:06;18.70;52.30
9446;DHT22;4761;49.490;10.908;2023-11-21T04:57:35;18.70;52.30
9446;DHT22;4761;49.490;10.908;2023-11-21T05:00:01;18.70;52.40
9446;DHT22;4761;49.490;10.908;2023-11-21T05:02:26;18.70;52.40
9446;DHT22;4761;49.490;10.908;2023-11-21T05:04:52;18.70;52.30
9446;DHT22;4761;49.490;10.908;2023-11-21T05:07:18;18.70;52.40
9446;DHT22;4761;49.490;10.908;2023-11-21T05:09:44;18.70;52.30
9446;DHT22;4761;49.490;10.908;2023-11-21T05:12:11;18.70;52.40
9446;DHT22;4761;49.490;10.908;2023-11-21T05:14:37;18.70;52.30
9446;DHT22;4761;49.490;10.908;2023-11-21T05:17:03;18.70;52.30
9446;DHT22;4761;49.490;10.908;2023-11-21T05:19:29;18.70;52.30
9446;DHT22;4761;49.490;10.908;2023-11-21T05:21:55;18.70;52.30
9446;DHT22;4761;49.490;10.908;2023-11-21T05:24:21;18.70;52.30
9446;DHT22;4761;49.490;10.908;2023-11-21T05:26:46;18.70;52.40
9446;DHT22;4761;49.490;10.908;2023-11-21T05:29:12;18.70;52.30
9446;DHT22;4761;49.490;10.908;2023-11-21T05:31:37;18.70;52.30
9446;DHT22;4761;49.490;10.908;2023-11-21T05:34:03;18.70;52.30
9446;DHT22;4761;49.490;10.908;2023-11-21T05:36:30;18.70;52.30
9446;DHT22;4761;49.490;10.908;2023-11-21T05:38:56;18.70;52.30
9446;DHT22;4761;49.490;10.908;2023-11-21T05:41:21;18.70;52.30
9446;DHT22;4761;49.490;10.908;2023-11-21T05:43:47;18.70;52.30
9446;DHT22;4761;49.490;10.908;2023-11-21T05:46:12;18.70;52.30
9446;DHT22;4761;49.490;10.908;2023-11-21T05:48:38;18.70;52.30
9446;DHT22;4761;49.490;10.908;2023-11-21T05:51:07;18.70;52.30
9446;DHT22;4761;49.490;10.908;2023-11-21T05:53:33;18.70;52.30
9446;DHT22;4761;49.490;10.908;2023-11-21T05:55:59;18.70;52.20
9446;DHT22;4761;49.490;10.908;2023-11-21T05:58:25;18.70;52.20
9446;DHT22;4761;49.490;10.908;2023-11-21T06:00:51;18.70;52.30
9446;DHT22;4761;49.490;10.908;2023-11-21T06:03:16;18.70;52.20
9446;DHT22;4761;49.490;10.908;2023-11-21T06:05:42;18.70;52.20
9446;DHT22;4761;49.490;10.908;2023-11-21T06:08:08;18.70;52.30
9446;DHT22;4761;49.490;10.908;2023-11-21T06:10:34;18.70;52.30
9446;DHT22;4761;49.490;10.908;2023-11-21T06:12:59;18.70;52.30
9446;DHT22;4761;49.490;10.908;2023-11-21T06:15:25;18.70;52.30
9446;DHT22;4761;49.490;10.908;2023-11-21T06:17:51;18.70;52.20
9446;DHT22;4761;49.490;10.908;2023-11-21T06:20:20;18.70;52.20
9446;DHT22;4761;49.490;10.908;2023-11-21T06:22:48;18.70;52.20
9446;DHT22;4761;49.490;10.908;2023-11-21T06:25:14;18.70;52.20
9446;DHT22;4761;49.490;10.908;2023-11-21T06:27:44;18.70;52.20
9446;DHT22;4761;49.490;10.908;2023-11-21T06:30:10;18.70;52.20
9446;DHT22;4761;49.490;10.908;2023-11-21T06:32:37;18.70;52.20
9446;DHT22;4761;49.490;10.908;2023-11-21T06:35:04;18.70;52.20
9446;DHT22;4761;49.490;10.908;2023-11-21T06:37:30;18.70;52.20
9446;DHT22;4761;49.490;10.908;2023-11-21T06:39:56;18.70;52.20
9446;DHT22;4761;49.490;10.908;2023-11-21T06:42:23;18.70;52.20
9446;DHT22;4761;49.490;10.908;2023-11-21T06:44:49;18.70;52.20
9446;DHT22;4761;49.490;10.908;2023-11-21T06:47:17;18.70;52.20
9446;DHT22;4761;49.490;10.908;2023-11-21T06:49:43;18.70;52.20
9446;DHT22;4761;49.490;10.908;2023-11-21T06:52:08;18.70;52.20
9446;DHT22;4761;49.490;10.908;2023-11-21T06:54:34;18.70;52.20
9446;DHT22;4761;49.490;10.908;2023-11-21T06:57:01;18.70;52.20
9446;DHT22;4761;49.490;10.908;2023-11-21T06:59:28;18.60;52.20
9446;DHT22;4761;49.490;10.908;2023-11-21T07:01:54;18.70;52.20
9446;DHT22;4761;49.490;10.908;2023-11-21T07:04:19;18.70;52.20
9446;DHT22;4761;49.490;10.908;2023-11-21T07:06:45;18.70;52.20
9446;DHT22;4761;49.490;10.908;2023-11-21T07:09:11;18.60;52.20
9446;DHT22;4761;49.490;10.908;2023-11-21T07:11:37;18.70;52.20
9446;DHT22;4761;49.490;10.908;2023-11-21T07:14:03;18.70;52.30
9446;DHT22;4761;49.490;10.908;2023-11-21T07:16:36;18.60;52.20
9446;DHT22;4761;49.490;10.908;2023-11-21T07:19:04;18.60;52.20
9446;DHT22;4761;49.490;10.908;2023-11-21T07:21:35;18.60;52.20
9446;DHT22;4761;49.490;10.908;2023-11-21T07:24:02;18.60;52.20
9446;DHT22;4761;49.490;10.908;2023-11-21T07:26:27;18.60;52.20
9446;DHT22;4761;49.490;10.908;2023-11-21T07:28:53;18.60;52.20
9446;DHT22;4761;49.490;10.908;2023-11-21T07:31:19;18.70;52.30
9446;DHT22;4761;49.490;10.908;2023-11-21T07:33:46;18.70;52.30
9446;DHT22;4761;49.490;10.908;2023-11-21T07:36:15;18.60;52.20
9446;DHT22;4761;49.490;10.908;2023-11-21T07:38:42;18.60;52.30
9446;DHT22;4761;49.490;10.908;2023-11-21T07:41:08;18.60;52.30
9446;DHT22;4761;49.490;10.908;2023-11-21T07:43:35;18.60;52.40
9446;DHT22;4761;49.490;10.908;2023-11-21T07:46:01;18.60;52.40
9446;DHT22;4761;49.490;10.908;2023-11-21T07:48:32;18.60;52.30
9446;DHT22;4761;49.490;10.908;2023-11-21T07:50:58;18.70;52.40
9446;DHT22;4761;49.490;10.908;2023-11-21T07:53:27;18.70;52.40
9446;DHT22;4761;49.490;10.908;2023-11-21T07:55:58;18.60;52.30
9446;DHT22;4761;49.490;10.908;2023-11-21T07:58:24;18.60;52.40
9446;DHT22;4761;49.490;10.908;2023-11-21T08:00:50;18.60;52.40
9446;DHT22;4761;49.490;10.908;2023-11-21T08:03:16;18.60;52.40
9446;DHT22;4761;49.490;10.908;2023-11-21T08:05:42;18.60;52.40
9446;DHT22;4761;49.490;10.908;2023-11-21T08:08:08;18.60;52.40
9446;DHT22;4761;49.490;10.908;2023-11-21T08:10:33;18.70;52.50
9446;DHT22;4761;49.490;10.908;2023-11-21T08:13:01;18.60;52.40
9446;DHT22;4761;49.490;10.908;2023-11-21T08:15:26;18.60;52.40
9446;DHT22;4761;49.490;10.908;2023-11-21T08:17:52;18.60;52.50
9446;DHT22;4761;49.490;10.908;2023-11-21T08:20:17;18.60;52.40
9446;DHT22;4761;49.490;10.908;2023-11-21T08:22:44;18.60;52.40
9446;DHT22;4761;49.490;10.908;2023-11-21T08:25:09;18.60;52.50
9446;DHT22;4761;49.490;10.908;2023-11-21T08:27:35;18.60;52.50
9446;DHT22;4761;49.490;10.908;2023-11-21T08:30:02;18.60;52.60
9446;DHT22;4761;49.490;10.908;2023-11-21T08:32:28;18.60;52.60
9446;DHT22;4761;49.490;10.908;2023-11-21T08:34:55;18.60;52.60
9446;DHT22;4761;49.490;10.908;2023-11-21T08:37:21;18.60;52.60
9446;DHT22;4761;49.490;10.908;2023-11-21T08:39:47;18.70;52.80
9446;DHT22;4761;49.490;10.908;2023-11-21T08:42:18;18.70;52.80
9446;DHT22;4761;49.490;10.908;2023-11-21T08:44:44;18.60;52.70
9446;DHT22;4761;49.490;10.908;2023-11-21T08:47:09;18.70;52.90
9446;DHT22;4761;49.490;10.908;2023-11-21T08:49:35;18.60;52.90
9446;DHT22;4761;49.490;10.908;2023-11-21T08:52:00;18.60;52.90
9446;DHT22;4761;49.490;10.908;2023-11-21T08:54:26;18.60;53.00
9446;DHT22;4761;49.490;10.908;2023-11-21T08:56:52;18.60;53.00
9446;DHT22;4761;49.490;10.908;2023-11-21T08:59:18;18.60;53.10
9446;DHT22;4761;49.490;10.908;2023-11-21T09:01:45;18.60;53.00
9446;DHT22;4761;49.490;10.908;2023-11-21T09:04:12;18.60;53.00
9446;DHT22;4761;49.490;10.908;2023-11-21T09:06:38;18.70;53.10
9446;DHT22;4761;49.490;10.908;2023-11-21T09:09:03;18.60;53.00
9446;DHT22;4761;49.490;10.908;2023-11-21T09:11:31;18.70;53.10
9446;DHT22;4761;49.490;10.908;2023-11-21T09:13:59;18.70;53.10
9446;DHT22;4761;49.490;10.908;2023-11-21T09:16:25;18.70;53.10
9446;DHT22;4761;49.490;10.908;2023-11-21T09:18:50;18.70;53.00
9446;DHT22;4761;49.490;10.908;2023-11-21T09:21:16;18.70;53.00
9446;DHT22;4761;49.490;10.908;2023-11-21T09:23:44;18.80;53.00
9446;DHT22;4761;49.490;10.908;2023-11-21T09:26:10;18.70;53.00
9446;DHT22;4761;49.490;10.908;2023-11-21T09:28:35;18.70;53.00
9446;DHT22;4761;49.490;10.908;2023-11-21T09:31:03;18.70;53.10
9446;DHT22;4761;49.490;10.908;2023-11-21T09:33:33;18.70;53.10
9446;DHT22;4761;49.490;10.908;2023-11-21T09:35:59;18.70;53.20
9446;DHT22;4761;49.490;10.908;2023-11-21T09:38:25;18.70;53.30
9446;DHT22;4761;49.490;10.908;2023-11-21T09:40:51;18.70;53.30
9446;DHT22;4761;49.490;10.908;2023-11-21T09:43:18;18.70;53.30
9446;DHT22;4761;49.490;10.908;2023-11-21T09:45:48;18.70;53.30
9446;DHT22;4761;49.490;10.908;2023-11-21T09:48:19;18.70;53.30
9446;DHT22;4761;49.490;10.908;2023-11-21T09:50:47;18.70;53.30
9446;DHT22;4761;49.490;10.908;2023-11-21T09:53:20;18.70;53.30
9446;DHT22;4761;49.490;10.908;2023-11-21T09:55:51;18.70;53.30
9446;DHT22;4761;49.490;10.908;2023-11-21T09:58:18;18.70;53.40
9446;DHT22;4761;49.490;10.908;2023-11-21T10:00:49;18.70;53.40
9446;DHT22;4761;49.490;10.908;2023-11-21T10:03:15;18.80;53.30
9446;DHT22;4761;49.490;10.908;2023-11-21T10:05:45;18.80;53.30
9446;DHT22;4761;49.490;10.908;2023-11-21T10:08:15;18.70;53.20
9446;DHT22;4761;49.490;10.908;2023-11-21T10:10:45;18.80;53.40
9446;DHT22;4761;49.490;10.908;2023-11-21T10:13:13;18.80;53.40
9446;DHT22;4761;49.490;10.908;2023-11-21T10:15:42;18.80;53.40
9446;DHT22;4761;49.490;10.908;2023-11-21T10:18:14;18.70;53.40
9446;DHT22;4761;49.490;10.908;2023-11-21T10:20:40;18.80;53.50
9446;DHT22;4761;49.490;10.908;2023-11-21T10:23:06;18.70;53.40
9446;DHT22;4761;49.490;10.908;2023-11-21T10:25:36;18.80;53.50
9446;DHT22;4761;49.490;10.908;2023-11-21T10:28:03;18.80;53.60
9446;DHT22;4761;49.490;10.908;2023-11-21T10:30:38;18.70;53.50
9446;DHT22;4761;49.490;10.908;2023-11-21T10:33:05;18.70;53.60
9446;DHT22;4761;49.490;10.908;2023-11-21T10:35:46;18.80;53.60
9446;DHT22;4761;49.490;10.908;2023-11-21T10:38:14;18.80;53.50
9446;DHT22;4761;49.490;10.908;2023-11-21T10:40:43;18.80;53.50
9446;DHT22;4761;49.490;10.908;2023-11-21T10:43:11;18.80;53.50
9446;DHT22;4761;49.490;10.908;2023-11-21T10:45:41;18.80;53.50
9446;DHT22;4761;49.490;10.908;2023-11-21T10:48:08;18.80;53.60
9446;DHT22;4761;49.490;10.908;2023-11-21T10:50:36;18.80;53.60
9446;DHT22;4761;49.490;10.908;2023-11-21T10:53:03;18.80;53.80
9446;DHT22;4761;49.490;10.908;2023-11-21T10:55:30;18.70;53.70
9446;DHT22;4761;49.490;10.908;2023-11-21T10:57:59;18.80;53.90
9446;DHT22;4761;49.490;10.908;2023-11-21T11:00:26;18.80;54.00
9446;DHT22;4761;49.490;10.908;2023-11-21T11:02:53;18.80;53.90
9446;DHT22;4761;49.490;10.908;2023-11-21T11:05:23;18.80;54.00
9446;DHT22;4761;49.490;10.908;2023-11-21T11:07:58;18.80;54.00
9446;DHT22;4761;49.490;10.908;2023-11-21T11:10:27;18.80;54.10
9446;DHT22;4761;49.490;10.908;2023-11-21T11:12:55;18.80;54.10
9446;DHT22;4761;49.490;10.908;2023-11-21T11:15:21;18.80;54.10
9446;DHT22;4761;49.490;10.908;2023-11-21T11:17:48;18.80;54.10
9446;DHT22;4761;49.490;10.908;2023-11-21T11:20:15;18.80;54.10
9446;DHT22;4761;49.490;10.908;2023-11-21T11:28:07;18.80;54.20
9446;DHT22;4761;49.490;10.908;2023-11-21T11:33:57;18.80;54.20
9446;DHT22;4761;49.490;10.908;2023-11-21T11:36:29;18.70;54.20
9446;DHT22;4761;49.490;10.908;2023-11-21T11:38:55;18.70;54.20
9446;DHT22;4761;49.490;10.908;2023-11-21T11:41:31;18.70;54.30
9446;DHT22;4761;49.490;10.908;2023-11-21T11:44:02;18.70;54.30
9446;DHT22;4761;49.490;10.908;2023-11-21T11:46:45;18.70;54.30
9446;DHT22;4761;49.490;10.908;2023-11-21T11:49:23;18.70;54.30
9446;DHT22;4761;49.490;10.908;2023-11-21T11:54:55;18.70;54.30
9446;DHT22;4761;49.490;10.908;2023-11-21T11:57:24;18.70;54.30
9446;DHT22;4761;49.490;10.908;2023-11-21T12:00:12;18.70;54.30
9446;DHT22;4761;49.490;10.908;2023-11-21T12:02:42;18.70;54.30
9446;DHT22;4761;49.490;10.908;2023-11-21T12:05:12;18.70;54.40
9446;DHT22;4761;49.490;10.908;2023-11-21T12:08:01;18.70;54.40
9446;DHT22;4761;49.490;10.908;2023-11-21T12:10:28;18.70;54.40
9446;DHT22;4761;49.490;10.908;2023-11-21T12:12:58;18.70;54.50
9446;DHT22;4761;49.490;10.908;2023-11-21T12:15:25;18.70;54.50
9446;DHT22;4761;49.490;10.908;2023-11-21T12:17:51;18.70;54.50
9446;DHT22;4761;49.490;10.908;2023-11-21T12:20:22;18.70;54.50
9446;DHT22;4761;49.490;10.908;2023-11-21T12:22:55;18.70;54.50
9446;DHT22;4761;49.490;10.908;2023-11-21T12:25:23;18.70;54.50
9446;DHT22;4761;49.490;10.908;2023-11-21T12:27:52;18.70;54.50
9446;DHT22;4761;49.490;10.908;2023-11-21T12:30:19;18.70;54.50
9446;DHT22;4761;49.490;10.908;2023-11-21T12:32:54;18.70;54.50
9446;DHT22;4761;49.490;10.908;2023-11-21T12:35:23;18.70;54.50
9446;DHT22;4761;49.490;10.908;2023-11-21T12:37:52;18.70;54.50
9446;DHT22;4761;49.490;10.908;2023-11-21T12:40:19;18.70;54.50
9446;DHT22;4761;49.490;10.908;2023-11-21T12:42:45;18.70;54.50
9446;DHT22;4761;49.490;10.908;2023-11-21T12:45:25;18.70;54.50
9446;DHT22;4761;49.490;10.908;2023-11-21T12:47:54;18.70;54.50
9446;DHT22;4761;49.490;10.908;2023-11-21T12:50:24;18.70;54.50
9446;DHT22;4761;49.490;10.908;2023-11-21T12:52:57;18.70;54.50
9446;DHT22;4761;49.490;10.908;2023-11-21T12:55:23;18.70;54.50
9446;DHT22;4761;49.490;10.908;2023-11-21T12:57:53;18.70;54.50
9446;DHT22;4761;49.490;10.908;2023-11-21T13:00:32;18.70;54.50
9446;DHT22;4761;49.490;10.908;2023-11-21T13:02:59;18.80;54.60
9446;DHT22;4761;49.490;10.908;2023-11-21T13:05:30;18.70;54.50
9446;DHT22;4761;49.490;10.908;2023-11-21T13:07:57;18.70;54.50
9446;DHT22;4761;49.490;10.908;2023-11-21T13:10:24;18.70;54.60
9446;DHT22;4761;49.490;10.908;2023-11-21T13:12:57;18.70;54.50
9446;DHT22;4761;49.490;10.908;2023-11-21T13:15:24;18.70;54.50
9446;DHT22;4761;49.490;10.908;2023-11-21T13:17:51;18.70;54.50
9446;DHT22;4761;49.490;10.908;2023-11-21T13:20:17;18.70;54.60
9446;DHT22;4761;49.490;10.908;2023-11-21T13:23:09;18.70;54.60
9446;DHT22;4761;49.490;10.908;2023-11-21T13:25:37;18.70;54.60
9446;DHT22;4761;49.490;10.908;2023-11-21T13:28:04;18.70;54.60
9446;DHT22;4761;49.490;10.908;2023-11-21T13:30:30;18.70;54.60
9446;DHT22;4761;49.490;10.908;2023-11-21T13:33:00;18.70;54.70
9446;DHT22;4761;49.490;10.908;2023-11-21T13:35:30;18.70;54.60
9446;DHT22;4761;49.490;10.908;2023-11-21T13:38:03;18.70;54.60
9446;DHT22;4761;49.490;10.908;2023-11-21T13:40:29;18.70;54.50
9446;DHT22;4761;49.490;10.908;2023-11-21T13:42:55;18.70;54.50
9446;DHT22;4761;49.490;10.908;2023-11-21T13:45:23;18.70;54.50
9446;DHT22;4761;49.490;10.908;2023-11-21T13:47:50;18.70;54.50
9446;DHT22;4761;49.490;10.908;2023-11-21T13:50:23;18.70;54.50
9446;DHT22;4761;49.490;10.908;2023-11-21T13:52:53;18.70;54.50
9446;DHT22;4761;49.490;10.908;2023-11-21T13:55:19;18.70;54.50
9446;DHT22;4761;49.490;10.908;2023-11-21T13:57:47;18.70;54.40
9446;DHT22;4761;49.490;10.908;2023-11-21T14:00:17;18.70;54.30
9446;DHT22;4761;49.490;10.908;2023-11-21T14:03:07;18.80;54.40
9446;DHT22;4761;49.490;10.908;2023-11-21T14:05:41;18.80;54.40
9446;DHT22;4761;49.490;10.908;2023-11-21T14:08:08;18.70;54.20
9446;DHT22;4761;49.490;10.908;2023-11-21T14:10:37;18.70;54.20
9446;DHT22;4761;49.490;10.908;2023-11-21T14:13:11;18.70;54.20
9446;DHT22;4761;49.490;10.908;2023-11-21T14:15:39;18.80;54.40
9446;DHT22;4761;49.490;10.908;2023-11-21T14:18:07;18.70;54.30
9446;DHT22;4761;49.490;10.908;2023-11-21T14:20:39;18.70;54.30
9446;DHT22;4761;49.490;10.908;2023-11-21T14:23:05;18.80;54.30
9446;DHT22;4761;49.490;10.908;2023-11-21T14:25:35;18.80;54.30
9446;DHT22;4761;49.490;10.908;2023-11-21T14:28:03;18.80;54.40
9446;DHT22;4761;49.490;10.908;2023-11-21T14:30:29;18.70;54.20
9446;DHT22;4761;49.490;10.908;2023-11-21T14:32:58;18.80;54.30
9446;DHT22;4761;49.490;10.908;2023-11-21T14:35:23;18.80;54.30
9446;DHT22;4761;49.490;10.908;2023-11-21T14:37:49;18.80;54.30
9446;DHT22;4761;49.490;10.908;2023-11-21T14:40:14;18.80;54.30
9446;DHT22;4761;49.490;10.908;2023-11-21T14:42:42;18.80;54.30
9446;DHT22;4761;49.490;10.908;2023-11-21T14:45:08;18.80;54.20
9446;DHT22;4761;49.490;10.908;2023-11-21T14:47:37;18.80;54.30
9446;DHT22;4761;49.490;10.908;2023-11-21T14:50:04;18.80;54.20
9446;DHT22;4761;49.490;10.908;2023-11-21T14:52:49;18.80;54.20
9446;DHT22;4761;49.490;10.908;2023-11-21T14:55:25;18.80;54.10
9446;DHT22;4761;49.490;10.908;2023-11-21T14:57:57;18.80;54.10
9446;DHT22;4761;49.490;10.908;2023-11-21T15:00:27;18.90;54.10
9446;DHT22;4761;49.490;10.908;2023-11-21T15:03:02;18.90;54.10
9446;DHT22;4761;49.490;10.908;2023-11-21T15:05:29;18.90;54.00
9446;DHT22;4761;49.490;10.908;2023-11-21T15:07:55;18.90;54.00
9446;DHT22;4761;49.490;10.908;2023-11-21T15:10:36;18.90;54.00
9446;DHT22;4761;49.490;10.908;2023-11-21T15:13:12;18.90;54.00
9446;DHT22;4761;49.490;10.908;2023-11-21T15:15:38;18.90;54.00
9446;DHT22;4761;49.490;10.908;2023-11-21T15:18:05;18.90;54.10
9446;DHT22;4761;49.490;10.908;2023-11-21T15:20:30;18.80;53.90
9446;DHT22;4761;49.490;10.908;2023-11-21T15:22:56;18.80;53.90
9446;DHT22;4761;49.490;10.908;2023-11-21T15:25:22;18.80;53.90
9446;DHT22;4761;49.490;10.908;2023-11-21T15:27:47;18.80;53.80
9446;DHT22;4761;49.490;10.908;2023-11-21T15:30:15;18.90;53.90
9446;DHT22;4761;49.490;10.908;2023-11-21T15:32:44;18.80;53.70
9446;DHT22;4761;49.490;10.908;2023-11-21T15:35:10;18.80;53.70
9446;DHT22;4761;49.490;10.908;2023-11-21T15:37:39;18.80;53.70
9446;DHT22;4761;49.490;10.908;2023-11-21T15:40:05;18.80;53.70
9446;DHT22;4761;49.490;10.908;2023-11-21T15:42:31;18.80;53.70
9446;DHT22;4761;49.490;10.908;2023-11-21T15:44:57;18.80;53.60
9446;DHT22;4761;49.490;10.908;2023-11-21T15:47:22;18.80;53.60
9446;DHT22;4761;49.490;10.908;2023-11-21T15:49:48;18.80;53.60
9446;DHT22;4761;49.490;10.908;2023-11-21T15:52:14;18.80;53.60
9446;DHT22;4761;49.490;10.908;2023-11-21T15:54:40;18.70;53.50
9446;DHT22;4761;49.490;10.908;2023-11-21T15:57:05;18.80;53.50